»·PEaware :: N1701A KBUR-KFUL

N1701A :: KBUR-KFUL

FLIGHT INFORMATION

Flight Status: Arrived
Operator: Privately registered:
United States
More flights under this callsign
Pilot: Aleksandar D. (29171)
Aircraft: CESSNA 172 SKYHAWK
(C172)
More flights by this aircraft type
Origin: KBUR Bob Hope-Burbank
United States
Destination: KFUL Fullerton Mun
United States
More flights between these airports :: More routes between these airports
Route:
File this flight plan on PilotEdge
Remarks:
Altitude:
(Current/Filed)
3,500ft
Speed:
(Current/Filed)
112kts
Departed: 04-Jan-21 04:40 PM
Arrived: 04-Jan-21 05:01 PM
Distance/Time
Traveled:
27nm/0:20
Distance/Time
To Go:
Arrived

Flight Plot

Page will automatically refresh every two minutes.


Map Options




Map Legend


Flown Route
Filed Route
Departure Airport
Arrival Airport
Navaid (VOR, NDB)
Fix

Horizontal Profiles

Position Reports

Time Latitude Longitude Heading Altitude Ground
Speed
04-Jan-21 16:11 34.196457 -118.367894 180 778ft 0kts
04-Jan-21 16:12 34.196457 -118.367894 180 778ft 0kts
04-Jan-21 16:13 34.196457 -118.367894 180 778ft 0kts
04-Jan-21 16:14 34.196457 -118.367894 180 778ft 0kts
04-Jan-21 16:15 34.196457 -118.367894 180 778ft 0kts
04-Jan-21 16:15 34.196457 -118.367894 180 778ft 0kts
04-Jan-21 16:17 34.196457 -118.367894 180 778ft 0kts
04-Jan-21 16:17 34.196457 -118.367894 180 778ft 0kts
04-Jan-21 16:18 34.196457 -118.367894 180 778ft 0kts
04-Jan-21 16:20 34.196457 -118.367894 180 778ft 0kts
04-Jan-21 16:20 34.196457 -118.367894 180 778ft 0kts
04-Jan-21 16:21 34.196457 -118.367894 180 778ft 0kts
04-Jan-21 16:22 34.196457 -118.367894 180 778ft 0kts
04-Jan-21 16:23 34.196457 -118.367894 180 778ft 0kts
04-Jan-21 16:24 34.196457 -118.367894 180 778ft 0kts
04-Jan-21 16:25 34.196457 -118.367894 180 778ft 0kts
04-Jan-21 16:26 34.196457 -118.367894 180 778ft 0kts
04-Jan-21 16:27 34.196457 -118.367894 180 778ft 0kts
04-Jan-21 16:28 34.196457 -118.367894 180 778ft 0kts
04-Jan-21 16:29 34.196457 -118.367894 180 778ft 0kts
04-Jan-21 16:30 34.196457 -118.367894 180 778ft 0kts
04-Jan-21 16:31 34.196710 -118.366726 7 778ft 7kts
04-Jan-21 16:32 34.196835 -118.360554 91 778ft 21kts
04-Jan-21 16:33 34.197070 -118.357990 2 778ft 4kts
04-Jan-21 16:34 34.202477 -118.358895 347 778ft 19kts
04-Jan-21 16:35 34.207419 -118.360255 352 778ft 15kts
04-Jan-21 16:36 34.208485 -118.360557 51 778ft 0kts
04-Jan-21 16:37 34.210619 -118.361157 347 778ft 16kts
04-Jan-21 16:38 34.210989 -118.361087 60 778ft 0kts
04-Jan-21 16:39 34.206924 -118.359013 170 824ft 67kts
04-Jan-21 16:40 34.185542 -118.353286 143 1495ft 87kts
04-Jan-21 16:41 34.177678 -118.325485 109 2197ft 90kts
04-Jan-21 16:42 34.171458 -118.298228 101 3007ft 86kts
04-Jan-21 16:43 34.166233 -118.268288 90 3506ft 112kts
04-Jan-21 16:44 34.164380 -118.230731 95 3487ft 107kts
04-Jan-21 16:45 34.161476 -118.195717 95 3495ft 108kts
04-Jan-21 16:46 34.151038 -118.161620 123 3499ft 110kts
04-Jan-21 16:47 34.134807 -118.129225 123 3493ft 112kts
04-Jan-21 16:48 34.118826 -118.097558 122 3499ft 111kts
04-Jan-21 16:49 34.102896 -118.066090 123 3508ft 108kts
04-Jan-21 16:50 34.086080 -118.036055 148 3503ft 107kts
04-Jan-21 16:51 34.060820 -118.017163 152 3481ft 106kts
04-Jan-21 16:52 34.035474 -117.998696 153 3504ft 104kts
04-Jan-21 16:53 34.010074 -117.980391 151 3520ft 103kts
04-Jan-21 16:54 33.985271 -117.962041 152 3498ft 109kts
04-Jan-21 16:55 33.959778 -117.943821 154 3494ft 106kts
04-Jan-21 16:56 33.934503 -117.937958 182 2962ft 89kts
04-Jan-21 16:57 33.909057 -117.938505 174 2254ft 95kts
04-Jan-21 16:58 33.883382 -117.937167 187 1443ft 88kts
04-Jan-21 16:59 33.876097 -117.958010 261 689ft 66kts
04-Jan-21 17:00 33.872365 -117.978091 257 100ft 40kts
04-Jan-21 17:01 33.871182 -117.978996 80 100ft 0kts
04-Jan-21 17:02 33.871182 -117.978996 80 100ft 0kts
04-Jan-21 17:03 33.871182 -117.978996 80 100ft 0kts

Navigation Log

Ident Type
Flight plan parsing failed, navigation log unavailable